sensor_id;sensor_type;location;lat;lon;timestamp;P1;durP1;ratioP1;P2;durP2;ratioP2
7531;SDS011;3807;49.030;8.714;2023-08-17T00:01:50;3.17;;;2.12;;
7531;SDS011;3807;49.030;8.714;2023-08-17T00:04:16;8.63;;;2.17;;
7531;SDS011;3807;49.030;8.714;2023-08-17T00:06:41;6.07;;;2.10;;
7531;SDS011;3807;49.030;8.714;2023-08-17T00:09:07;3.12;;;1.80;;
7531;SDS011;3807;49.030;8.714;2023-08-17T00:11:33;3.08;;;1.87;;
7531;SDS011;3807;49.030;8.714;2023-08-17T00:13:58;2.97;;;1.80;;
7531;SDS011;3807;49.030;8.714;2023-08-17T00:16:24;5.37;;;1.77;;
7531;SDS011;3807;49.030;8.714;2023-08-17T00:18:50;2.97;;;1.75;;
7531;SDS011;3807;49.030;8.714;2023-08-17T00:21:15;3.12;;;2.05;;
7531;SDS011;3807;49.030;8.714;2023-08-17T00:23:40;3.50;;;1.67;;
7531;SDS011;3807;49.030;8.714;2023-08-17T00:26:06;4.40;;;1.80;;
7531;SDS011;3807;49.030;8.714;2023-08-17T00:28:31;2.50;;;1.65;;
7531;SDS011;3807;49.030;8.714;2023-08-17T00:30:57;4.25;;;2.05;;
7531;SDS011;3807;49.030;8.714;2023-08-17T00:33:22;3.15;;;1.77;;
7531;SDS011;3807;49.030;8.714;2023-08-17T00:35:47;1.95;;;1.50;;
7531;SDS011;3807;49.030;8.714;2023-08-17T00:38:13;3.70;;;1.90;;
7531;SDS011;3807;49.030;8.714;2023-08-17T00:40:38;3.50;;;2.30;;
7531;SDS011;3807;49.030;8.714;2023-08-17T00:43:04;2.42;;;1.40;;
7531;SDS011;3807;49.030;8.714;2023-08-17T00:45:30;3.70;;;1.73;;
7531;SDS011;3807;49.030;8.714;2023-08-17T00:47:57;4.65;;;1.90;;
7531;SDS011;3807;49.030;8.714;2023-08-17T00:50:23;2.92;;;1.80;;
7531;SDS011;3807;49.030;8.714;2023-08-17T00:52:53;3.35;;;2.22;;
7531;SDS011;3807;49.030;8.714;2023-08-17T00:55:20;3.45;;;1.67;;
7531;SDS011;3807;49.030;8.714;2023-08-17T00:57:46;2.62;;;1.87;;
7531;SDS011;3807;49.030;8.714;2023-08-17T01:00:12;2.70;;;1.77;;
7531;SDS011;3807;49.030;8.714;2023-08-17T01:02:39;2.92;;;2.00;;
7531;SDS011;3807;49.030;8.714;2023-08-17T01:05:06;3.08;;;1.87;;
7531;SDS011;3807;49.030;8.714;2023-08-17T01:07:32;3.15;;;2.00;;
7531;SDS011;3807;49.030;8.714;2023-08-17T01:09:58;6.32;;;2.15;;
7531;SDS011;3807;49.030;8.714;2023-08-17T01:15:14;2.83;;;1.95;;
7531;SDS011;3807;49.030;8.714;2023-08-17T01:17:43;2.40;;;1.52;;
7531;SDS011;3807;49.030;8.714;2023-08-17T01:20:11;4.65;;;1.62;;
7531;SDS011;3807;49.030;8.714;2023-08-17T01:22:40;1.80;;;1.50;;
7531;SDS011;3807;49.030;8.714;2023-08-17T01:25:07;3.62;;;1.80;;
7531;SDS011;3807;49.030;8.714;2023-08-17T01:27:36;5.87;;;2.00;;
7531;SDS011;3807;49.030;8.714;2023-08-17T01:30:04;5.18;;;1.90;;
7531;SDS011;3807;49.030;8.714;2023-08-17T01:32:33;3.40;;;1.58;;
7531;SDS011;3807;49.030;8.714;2023-08-17T01:38:03;6.72;;;2.25;;
7531;SDS011;3807;49.030;8.714;2023-08-17T01:40:32;3.78;;;1.98;;
7531;SDS011;3807;49.030;8.714;2023-08-17T01:42:58;4.43;;;1.73;;
7531;SDS011;3807;49.030;8.714;2023-08-17T01:45:25;3.20;;;1.77;;
7531;SDS011;3807;49.030;8.714;2023-08-17T01:47:50;2.80;;;1.80;;
7531;SDS011;3807;49.030;8.714;2023-08-17T01:50:16;2.03;;;1.83;;
7531;SDS011;3807;49.030;8.714;2023-08-17T01:52:41;2.05;;;1.67;;
7531;SDS011;3807;49.030;8.714;2023-08-17T01:55:07;4.28;;;2.20;;
7531;SDS011;3807;49.030;8.714;2023-08-17T01:57:33;2.78;;;1.75;;
7531;SDS011;3807;49.030;8.714;2023-08-17T01:59:59;1.98;;;1.55;;
7531;SDS011;3807;49.030;8.714;2023-08-17T02:02:25;3.30;;;2.08;;
7531;SDS011;3807;49.030;8.714;2023-08-17T02:04:50;4.05;;;2.10;;
7531;SDS011;3807;49.030;8.714;2023-08-17T02:07:15;2.92;;;1.80;;
7531;SDS011;3807;49.030;8.714;2023-08-17T02:09:41;2.40;;;2.05;;
7531;SDS011;3807;49.030;8.714;2023-08-17T02:12:06;3.08;;;1.58;;
7531;SDS011;3807;49.030;8.714;2023-08-17T02:14:33;2.80;;;2.08;;
7531;SDS011;3807;49.030;8.714;2023-08-17T02:16:58;4.00;;;1.87;;
7531;SDS011;3807;49.030;8.714;2023-08-17T02:19:23;3.80;;;1.77;;
7531;SDS011;3807;49.030;8.714;2023-08-17T02:21:49;3.30;;;1.67;;
7531;SDS011;3807;49.030;8.714;2023-08-17T02:24:14;2.83;;;1.87;;
7531;SDS011;3807;49.030;8.714;2023-08-17T02:26:39;2.28;;;1.83;;
7531;SDS011;3807;49.030;8.714;2023-08-17T02:29:05;5.45;;;1.90;;
7531;SDS011;3807;49.030;8.714;2023-08-17T02:31:30;5.30;;;2.12;;
7531;SDS011;3807;49.030;8.714;2023-08-17T02:33:56;2.70;;;1.98;;
7531;SDS011;3807;49.030;8.714;2023-08-17T02:36:25;4.18;;;3.03;;
7531;SDS011;3807;49.030;8.714;2023-08-17T02:38:54;2.83;;;2.37;;
7531;SDS011;3807;49.030;8.714;2023-08-17T02:41:20;4.47;;;2.33;;
7531;SDS011;3807;49.030;8.714;2023-08-17T02:43:45;3.28;;;2.20;;
7531;SDS011;3807;49.030;8.714;2023-08-17T02:46:11;4.85;;;1.60;;
7531;SDS011;3807;49.030;8.714;2023-08-17T02:48:36;4.00;;;1.80;;
7531;SDS011;3807;49.030;8.714;2023-08-17T02:51:01;3.97;;;1.73;;
7531;SDS011;3807;49.030;8.714;2023-08-17T02:53:27;3.53;;;1.77;;
7531;SDS011;3807;49.030;8.714;2023-08-17T02:55:52;3.45;;;1.87;;
7531;SDS011;3807;49.030;8.714;2023-08-17T02:58:18;1.55;;;1.35;;
7531;SDS011;3807;49.030;8.714;2023-08-17T03:00:44;2.03;;;1.60;;
7531;SDS011;3807;49.030;8.714;2023-08-17T03:03:09;2.45;;;1.50;;
7531;SDS011;3807;49.030;8.714;2023-08-17T03:05:34;4.05;;;1.85;;
7531;SDS011;3807;49.030;8.714;2023-08-17T03:08:00;4.62;;;1.95;;
7531;SDS011;3807;49.030;8.714;2023-08-17T03:10:25;2.53;;;1.60;;
7531;SDS011;3807;49.030;8.714;2023-08-17T03:12:50;2.40;;;1.65;;
7531;SDS011;3807;49.030;8.714;2023-08-17T03:15:16;2.45;;;1.70;;
7531;SDS011;3807;49.030;8.714;2023-08-17T03:17:41;4.70;;;1.52;;
7531;SDS011;3807;49.030;8.714;2023-08-17T03:20:07;2.97;;;1.90;;
7531;SDS011;3807;49.030;8.714;2023-08-17T03:22:33;4.20;;;1.87;;
7531;SDS011;3807;49.030;8.714;2023-08-17T03:24:59;3.35;;;1.55;;
7531;SDS011;3807;49.030;8.714;2023-08-17T03:27:24;2.58;;;1.80;;
7531;SDS011;3807;49.030;8.714;2023-08-17T03:29:50;4.82;;;1.80;;
7531;SDS011;3807;49.030;8.714;2023-08-17T03:32:16;3.87;;;1.60;;
7531;SDS011;3807;49.030;8.714;2023-08-17T03:34:41;2.25;;;1.62;;
7531;SDS011;3807;49.030;8.714;2023-08-17T03:37:07;5.10;;;2.00;;
7531;SDS011;3807;49.030;8.714;2023-08-17T03:39:32;3.72;;;2.20;;
7531;SDS011;3807;49.030;8.714;2023-08-17T03:41:57;2.70;;;2.12;;
7531;SDS011;3807;49.030;8.714;2023-08-17T03:44:23;5.65;;;2.50;;
7531;SDS011;3807;49.030;8.714;2023-08-17T03:46:50;3.53;;;2.12;;
7531;SDS011;3807;49.030;8.714;2023-08-17T03:49:21;3.87;;;2.30;;
7531;SDS011;3807;49.030;8.714;2023-08-17T03:51:47;4.12;;;2.75;;
7531;SDS011;3807;49.030;8.714;2023-08-17T03:54:12;3.30;;;2.35;;
7531;SDS011;3807;49.030;8.714;2023-08-17T03:56:38;7.35;;;2.53;;
7531;SDS011;3807;49.030;8.714;2023-08-17T03:59:03;3.78;;;2.47;;
7531;SDS011;3807;49.030;8.714;2023-08-17T04:01:29;4.65;;;2.60;;
7531;SDS011;3807;49.030;8.714;2023-08-17T04:03:54;4.18;;;2.87;;
7531;SDS011;3807;49.030;8.714;2023-08-17T04:06:20;5.03;;;2.70;;
7531;SDS011;3807;49.030;8.714;2023-08-17T04:08:45;4.55;;;2.72;;
7531;SDS011;3807;49.030;8.714;2023-08-17T04:11:11;4.07;;;2.92;;
7531;SDS011;3807;49.030;8.714;2023-08-17T04:13:36;6.40;;;3.50;;
7531;SDS011;3807;49.030;8.714;2023-08-17T04:16:01;4.32;;;2.70;;
7531;SDS011;3807;49.030;8.714;2023-08-17T04:18:27;7.20;;;3.08;;
7531;SDS011;3807;49.030;8.714;2023-08-17T04:20:52;4.43;;;3.22;;
7531;SDS011;3807;49.030;8.714;2023-08-17T04:23:18;4.40;;;3.12;;
7531;SDS011;3807;49.030;8.714;2023-08-17T04:25:43;3.72;;;2.62;;
7531;SDS011;3807;49.030;8.714;2023-08-17T04:28:09;4.18;;;2.80;;
7531;SDS011;3807;49.030;8.714;2023-08-17T04:30:34;5.07;;;2.67;;
7531;SDS011;3807;49.030;8.714;2023-08-17T04:33:00;8.95;;;2.78;;
7531;SDS011;3807;49.030;8.714;2023-08-17T04:35:25;3.75;;;2.65;;
7531;SDS011;3807;49.030;8.714;2023-08-17T04:37:50;5.28;;;2.53;;
7531;SDS011;3807;49.030;8.714;2023-08-17T04:40:16;3.28;;;2.70;;
7531;SDS011;3807;49.030;8.714;2023-08-17T04:42:41;5.28;;;2.95;;
7531;SDS011;3807;49.030;8.714;2023-08-17T04:45:07;2.80;;;2.30;;
7531;SDS011;3807;49.030;8.714;2023-08-17T04:47:33;6.00;;;2.30;;
7531;SDS011;3807;49.030;8.714;2023-08-17T04:49:58;4.25;;;2.62;;
7531;SDS011;3807;49.030;8.714;2023-08-17T04:52:24;4.93;;;2.80;;
7531;SDS011;3807;49.030;8.714;2023-08-17T04:54:49;3.20;;;2.60;;
7531;SDS011;3807;49.030;8.714;2023-08-17T04:57:14;3.87;;;2.72;;
7531;SDS011;3807;49.030;8.714;2023-08-17T04:59:40;3.85;;;3.10;;
7531;SDS011;3807;49.030;8.714;2023-08-17T05:02:05;5.22;;;3.08;;
7531;SDS011;3807;49.030;8.714;2023-08-17T05:04:31;6.80;;;3.42;;
7531;SDS011;3807;49.030;8.714;2023-08-17T05:06:56;7.40;;;3.85;;
7531;SDS011;3807;49.030;8.714;2023-08-17T05:09:22;6.18;;;3.17;;
7531;SDS011;3807;49.030;8.714;2023-08-17T05:11:47;5.70;;;2.87;;
7531;SDS011;3807;49.030;8.714;2023-08-17T05:14:13;5.12;;;3.05;;
7531;SDS011;3807;49.030;8.714;2023-08-17T05:16:38;5.82;;;3.50;;
7531;SDS011;3807;49.030;8.714;2023-08-17T05:19:03;4.43;;;3.10;;
7531;SDS011;3807;49.030;8.714;2023-08-17T05:21:29;5.20;;;2.95;;
7531;SDS011;3807;49.030;8.714;2023-08-17T05:23:54;6.45;;;3.22;;
7531;SDS011;3807;49.030;8.714;2023-08-17T05:26:20;8.02;;;4.12;;
7531;SDS011;3807;49.030;8.714;2023-08-17T05:28:45;6.50;;;3.55;;
7531;SDS011;3807;49.030;8.714;2023-08-17T05:31:11;5.93;;;4.15;;
7531;SDS011;3807;49.030;8.714;2023-08-17T05:33:36;5.50;;;4.15;;
7531;SDS011;3807;49.030;8.714;2023-08-17T05:36:02;8.18;;;4.50;;
7531;SDS011;3807;49.030;8.714;2023-08-17T05:38:28;6.72;;;4.25;;
7531;SDS011;3807;49.030;8.714;2023-08-17T05:40:57;6.22;;;4.18;;
7531;SDS011;3807;49.030;8.714;2023-08-17T05:43:23;6.50;;;5.18;;
7531;SDS011;3807;49.030;8.714;2023-08-17T05:45:48;7.62;;;4.78;;
7531;SDS011;3807;49.030;8.714;2023-08-17T05:48:14;5.45;;;4.28;;
7531;SDS011;3807;49.030;8.714;2023-08-17T05:50:42;7.40;;;4.75;;
7531;SDS011;3807;49.030;8.714;2023-08-17T05:53:08;7.22;;;5.47;;
7531;SDS011;3807;49.030;8.714;2023-08-17T05:55:33;7.90;;;5.18;;
7531;SDS011;3807;49.030;8.714;2023-08-17T05:57:59;14.05;;;5.00;;
7531;SDS011;3807;49.030;8.714;2023-08-17T06:00:24;6.28;;;4.45;;
7531;SDS011;3807;49.030;8.714;2023-08-17T06:02:50;9.23;;;5.10;;
7531;SDS011;3807;49.030;8.714;2023-08-17T06:05:16;8.00;;;4.70;;
7531;SDS011;3807;49.030;8.714;2023-08-17T06:07:42;8.57;;;4.80;;
7531;SDS011;3807;49.030;8.714;2023-08-17T06:10:08;10.27;;;5.20;;
7531;SDS011;3807;49.030;8.714;2023-08-17T06:12:34;11.63;;;5.43;;
7531;SDS011;3807;49.030;8.714;2023-08-17T06:15:01;8.77;;;4.90;;
7531;SDS011;3807;49.030;8.714;2023-08-17T06:17:27;5.82;;;4.12;;
7531;SDS011;3807;49.030;8.714;2023-08-17T06:19:53;7.57;;;4.50;;
7531;SDS011;3807;49.030;8.714;2023-08-17T06:22:18;5.95;;;4.57;;
7531;SDS011;3807;49.030;8.714;2023-08-17T06:24:43;8.13;;;4.80;;
7531;SDS011;3807;49.030;8.714;2023-08-17T06:27:09;5.32;;;4.37;;
7531;SDS011;3807;49.030;8.714;2023-08-17T06:29:34;6.75;;;4.50;;
7531;SDS011;3807;49.030;8.714;2023-08-17T06:32:00;9.68;;;5.45;;
7531;SDS011;3807;49.030;8.714;2023-08-17T06:34:25;8.25;;;5.37;;
7531;SDS011;3807;49.030;8.714;2023-08-17T06:36:57;10.48;;;4.40;;
7531;SDS011;3807;49.030;8.714;2023-08-17T06:39:24;7.47;;;4.25;;
7531;SDS011;3807;49.030;8.714;2023-08-17T06:41:50;10.00;;;4.05;;
7531;SDS011;3807;49.030;8.714;2023-08-17T06:44:15;6.45;;;4.40;;
7531;SDS011;3807;49.030;8.714;2023-08-17T06:46:41;8.63;;;4.47;;
7531;SDS011;3807;49.030;8.714;2023-08-17T06:49:06;9.13;;;5.25;;
7531;SDS011;3807;49.030;8.714;2023-08-17T06:51:33;10.00;;;5.20;;
7531;SDS011;3807;49.030;8.714;2023-08-17T06:53:58;7.87;;;5.22;;
7531;SDS011;3807;49.030;8.714;2023-08-17T06:56:24;8.88;;;4.80;;
7531;SDS011;3807;49.030;8.714;2023-08-17T06:58:49;8.32;;;4.87;;
7531;SDS011;3807;49.030;8.714;2023-08-17T07:01:15;9.25;;;4.85;;
7531;SDS011;3807;49.030;8.714;2023-08-17T07:03:40;6.95;;;5.28;;
7531;SDS011;3807;49.030;8.714;2023-08-17T07:06:05;5.80;;;4.47;;
7531;SDS011;3807;49.030;8.714;2023-08-17T07:08:30;9.68;;;6.20;;
7531;SDS011;3807;49.030;8.714;2023-08-17T07:10:58;7.00;;;5.75;;
7531;SDS011;3807;49.030;8.714;2023-08-17T07:13:23;8.55;;;5.45;;
7531;SDS011;3807;49.030;8.714;2023-08-17T07:15:48;9.18;;;5.68;;
7531;SDS011;3807;49.030;8.714;2023-08-17T07:18:14;10.50;;;6.05;;
7531;SDS011;3807;49.030;8.714;2023-08-17T07:20:39;10.13;;;5.65;;
7531;SDS011;3807;49.030;8.714;2023-08-17T07:23:05;11.00;;;6.12;;
7531;SDS011;3807;49.030;8.714;2023-08-17T07:25:30;11.50;;;6.15;;
7531;SDS011;3807;49.030;8.714;2023-08-17T07:27:55;9.73;;;7.22;;
7531;SDS011;3807;49.030;8.714;2023-08-17T07:30:21;7.47;;;5.00;;
7531;SDS011;3807;49.030;8.714;2023-08-17T07:32:46;5.75;;;4.75;;
7531;SDS011;3807;49.030;8.714;2023-08-17T07:35:12;7.50;;;5.70;;
7531;SDS011;3807;49.030;8.714;2023-08-17T07:37:37;7.20;;;5.22;;
7531;SDS011;3807;49.030;8.714;2023-08-17T07:40:03;7.97;;;5.80;;
7531;SDS011;3807;49.030;8.714;2023-08-17T07:42:28;8.45;;;5.82;;
7531;SDS011;3807;49.030;8.714;2023-08-17T07:44:54;8.43;;;4.75;;
7531;SDS011;3807;49.030;8.714;2023-08-17T07:47:19;8.45;;;4.60;;
7531;SDS011;3807;49.030;8.714;2023-08-17T07:49:44;8.60;;;6.22;;
7531;SDS011;3807;49.030;8.714;2023-08-17T07:52:10;8.40;;;5.45;;
7531;SDS011;3807;49.030;8.714;2023-08-17T07:54:35;10.35;;;6.97;;
7531;SDS011;3807;49.030;8.714;2023-08-17T07:57:00;8.68;;;6.28;;
7531;SDS011;3807;49.030;8.714;2023-08-17T07:59:28;11.57;;;6.30;;
7531;SDS011;3807;49.030;8.714;2023-08-17T08:01:53;9.13;;;6.12;;
7531;SDS011;3807;49.030;8.714;2023-08-17T08:04:19;15.05;;;6.97;;
7531;SDS011;3807;49.030;8.714;2023-08-17T08:06:44;9.60;;;6.80;;
7531;SDS011;3807;49.030;8.714;2023-08-17T08:09:09;8.80;;;6.80;;
7531;SDS011;3807;49.030;8.714;2023-08-17T08:11:35;11.30;;;7.55;;
7531;SDS011;3807;49.030;8.714;2023-08-17T08:14:00;11.77;;;6.55;;
7531;SDS011;3807;49.030;8.714;2023-08-17T08:16:26;14.93;;;6.18;;
7531;SDS011;3807;49.030;8.714;2023-08-17T08:18:51;12.07;;;6.87;;
7531;SDS011;3807;49.030;8.714;2023-08-17T08:21:17;10.25;;;6.60;;
7531;SDS011;3807;49.030;8.714;2023-08-17T08:23:42;9.30;;;6.53;;
7531;SDS011;3807;49.030;8.714;2023-08-17T08:26:08;13.55;;;6.70;;
7531;SDS011;3807;49.030;8.714;2023-08-17T08:28:33;7.80;;;6.32;;
7531;SDS011;3807;49.030;8.714;2023-08-17T08:31:02;10.18;;;7.75;;
7531;SDS011;3807;49.030;8.714;2023-08-17T08:33:31;7.50;;;6.57;;
7531;SDS011;3807;49.030;8.714;2023-08-17T08:35:57;10.27;;;6.57;;
7531;SDS011;3807;49.030;8.714;2023-08-17T08:38:22;8.68;;;6.30;;
7531;SDS011;3807;49.030;8.714;2023-08-17T08:40:47;8.32;;;6.10;;
7531;SDS011;3807;49.030;8.714;2023-08-17T08:43:16;6.68;;;5.70;;
7531;SDS011;3807;49.030;8.714;2023-08-17T08:45:42;7.62;;;5.22;;
7531;SDS011;3807;49.030;8.714;2023-08-17T08:48:11;7.12;;;5.62;;
7531;SDS011;3807;49.030;8.714;2023-08-17T08:50:39;8.00;;;5.90;;
7531;SDS011;3807;49.030;8.714;2023-08-17T08:53:08;7.57;;;4.85;;
7531;SDS011;3807;49.030;8.714;2023-08-17T08:55:38;8.88;;;5.43;;
7531;SDS011;3807;49.030;8.714;2023-08-17T08:58:25;7.18;;;4.95;;
7531;SDS011;3807;49.030;8.714;2023-08-17T09:00:51;7.97;;;5.12;;
7531;SDS011;3807;49.030;8.714;2023-08-17T09:03:17;8.88;;;5.53;;
7531;SDS011;3807;49.030;8.714;2023-08-17T09:05:46;9.98;;;5.80;;
7531;SDS011;3807;49.030;8.714;2023-08-17T09:08:13;8.38;;;4.93;;
7531;SDS011;3807;49.030;8.714;2023-08-17T09:10:41;8.15;;;4.85;;
7531;SDS011;3807;49.030;8.714;2023-08-17T09:13:06;7.20;;;4.62;;
7531;SDS011;3807;49.030;8.714;2023-08-17T09:15:32;7.72;;;5.50;;
7531;SDS011;3807;49.030;8.714;2023-08-17T09:17:57;7.65;;;5.03;;
7531;SDS011;3807;49.030;8.714;2023-08-17T09:23:20;6.07;;;4.70;;
7531;SDS011;3807;49.030;8.714;2023-08-17T09:25:47;5.72;;;5.10;;
7531;SDS011;3807;49.030;8.714;2023-08-17T09:28:15;7.53;;;5.45;;
7531;SDS011;3807;49.030;8.714;2023-08-17T09:30:54;7.80;;;5.25;;
7531;SDS011;3807;49.030;8.714;2023-08-17T09:33:25;10.10;;;5.40;;
7531;SDS011;3807;49.030;8.714;2023-08-17T09:35:52;7.07;;;4.85;;
7531;SDS011;3807;49.030;8.714;2023-08-17T09:38:19;7.87;;;5.45;;
7531;SDS011;3807;49.030;8.714;2023-08-17T09:40:45;12.00;;;5.28;;
7531;SDS011;3807;49.030;8.714;2023-08-17T09:43:11;7.95;;;4.87;;
7531;SDS011;3807;49.030;8.714;2023-08-17T09:45:38;6.47;;;5.32;;
7531;SDS011;3807;49.030;8.714;2023-08-17T09:48:04;6.85;;;5.25;;
7531;SDS011;3807;49.030;8.714;2023-08-17T09:50:31;7.80;;;5.10;;
7531;SDS011;3807;49.030;8.714;2023-08-17T09:52:56;8.77;;;6.15;;
7531;SDS011;3807;49.030;8.714;2023-08-17T09:55:22;7.15;;;5.62;;
7531;SDS011;3807;49.030;8.714;2023-08-17T09:57:48;9.10;;;4.30;;
7531;SDS011;3807;49.030;8.714;2023-08-17T10:00:15;6.28;;;5.22;;
7531;SDS011;3807;49.030;8.714;2023-08-17T10:02:40;6.28;;;4.87;;
7531;SDS011;3807;49.030;8.714;2023-08-17T10:05:09;8.27;;;4.78;;
7531;SDS011;3807;49.030;8.714;2023-08-17T10:07:37;8.27;;;5.60;;
7531;SDS011;3807;49.030;8.714;2023-08-17T10:10:06;5.32;;;4.32;;
7531;SDS011;3807;49.030;8.714;2023-08-17T10:12:42;6.53;;;5.25;;
7531;SDS011;3807;49.030;8.714;2023-08-17T10:15:11;5.82;;;4.32;;
7531;SDS011;3807;49.030;8.714;2023-08-17T10:17:43;5.70;;;4.60;;
7531;SDS011;3807;49.030;8.714;2023-08-17T10:20:23;6.85;;;5.20;;
7531;SDS011;3807;49.030;8.714;2023-08-17T10:23:33;9.90;;;5.93;;
7531;SDS011;3807;49.030;8.714;2023-08-17T10:25:42;8.70;;;4.55;;
7531;SDS011;3807;49.030;8.714;2023-08-17T10:28:08;9.05;;;5.40;;
7531;SDS011;3807;49.030;8.714;2023-08-17T10:30:35;6.30;;;5.03;;
7531;SDS011;3807;49.030;8.714;2023-08-17T10:33:01;7.43;;;5.30;;
7531;SDS011;3807;49.030;8.714;2023-08-17T10:35:29;6.60;;;4.87;;
7531;SDS011;3807;49.030;8.714;2023-08-17T10:37:56;5.50;;;4.50;;
7531;SDS011;3807;49.030;8.714;2023-08-17T10:40:34;4.95;;;4.25;;
7531;SDS011;3807;49.030;8.714;2023-08-17T10:43:00;5.62;;;4.65;;
7531;SDS011;3807;49.030;8.714;2023-08-17T10:48:38;4.97;;;4.47;;
7531;SDS011;3807;49.030;8.714;2023-08-17T10:51:01;5.22;;;4.40;;
7531;SDS011;3807;49.030;8.714;2023-08-17T10:53:30;7.30;;;4.50;;
7531;SDS011;3807;49.030;8.714;2023-08-17T10:55:59;6.40;;;4.47;;
7531;SDS011;3807;49.030;8.714;2023-08-17T10:58:25;4.62;;;4.22;;
7531;SDS011;3807;49.030;8.714;2023-08-17T11:00:54;6.40;;;3.97;;
7531;SDS011;3807;49.030;8.714;2023-08-17T11:03:21;6.00;;;4.40;;
7531;SDS011;3807;49.030;8.714;2023-08-17T11:05:51;5.43;;;4.82;;
7531;SDS011;3807;49.030;8.714;2023-08-17T11:08:28;9.15;;;4.97;;
7531;SDS011;3807;49.030;8.714;2023-08-17T11:13:41;10.00;;;4.70;;
7531;SDS011;3807;49.030;8.714;2023-08-17T11:16:09;6.37;;;5.05;;
7531;SDS011;3807;49.030;8.714;2023-08-17T11:18:35;9.32;;;5.15;;
7531;SDS011;3807;49.030;8.714;2023-08-17T11:21:05;6.40;;;4.93;;
7531;SDS011;3807;49.030;8.714;2023-08-17T11:23:32;7.07;;;4.57;;
7531;SDS011;3807;49.030;8.714;2023-08-17T11:25:59;6.35;;;5.72;;
7531;SDS011;3807;49.030;8.714;2023-08-17T11:28:25;6.78;;;6.03;;
7531;SDS011;3807;49.030;8.714;2023-08-17T11:30:58;7.03;;;5.60;;
7531;SDS011;3807;49.030;8.714;2023-08-17T11:33:28;6.80;;;4.97;;
7531;SDS011;3807;49.030;8.714;2023-08-17T11:35:55;8.85;;;5.60;;
7531;SDS011;3807;49.030;8.714;2023-08-17T11:38:21;9.00;;;7.00;;
7531;SDS011;3807;49.030;8.714;2023-08-17T11:40:46;7.03;;;5.60;;
7531;SDS011;3807;49.030;8.714;2023-08-17T11:43:12;6.70;;;5.47;;
7531;SDS011;3807;49.030;8.714;2023-08-17T11:45:38;9.20;;;5.32;;
7531;SDS011;3807;49.030;8.714;2023-08-17T11:48:04;5.22;;;4.70;;
7531;SDS011;3807;49.030;8.714;2023-08-17T11:50:30;7.95;;;5.00;;
7531;SDS011;3807;49.030;8.714;2023-08-17T11:52:55;6.37;;;4.90;;
7531;SDS011;3807;49.030;8.714;2023-08-17T11:55:24;7.65;;;5.15;;
7531;SDS011;3807;49.030;8.714;2023-08-17T11:57:49;7.10;;;5.00;;
7531;SDS011;3807;49.030;8.714;2023-08-17T12:00:21;7.30;;;6.20;;
7531;SDS011;3807;49.030;8.714;2023-08-17T12:02:47;8.43;;;5.82;;
7531;SDS011;3807;49.030;8.714;2023-08-17T12:05:13;5.50;;;5.00;;
7531;SDS011;3807;49.030;8.714;2023-08-17T12:07:44;8.10;;;5.12;;
7531;SDS011;3807;49.030;8.714;2023-08-17T12:10:10;9.30;;;5.75;;
7531;SDS011;3807;49.030;8.714;2023-08-17T12:12:36;5.85;;;4.85;;
7531;SDS011;3807;49.030;8.714;2023-08-17T12:15:03;5.62;;;4.65;;
7531;SDS011;3807;49.030;8.714;2023-08-17T12:17:29;5.70;;;5.10;;
7531;SDS011;3807;49.030;8.714;2023-08-17T12:19:55;9.18;;;4.82;;
7531;SDS011;3807;49.030;8.714;2023-08-17T12:22:22;5.97;;;4.93;;
7531;SDS011;3807;49.030;8.714;2023-08-17T12:24:50;6.55;;;5.30;;
7531;SDS011;3807;49.030;8.714;2023-08-17T12:27:17;5.43;;;4.93;;
7531;SDS011;3807;49.030;8.714;2023-08-17T12:29:49;5.53;;;4.97;;
7531;SDS011;3807;49.030;8.714;2023-08-17T12:32:16;6.25;;;4.60;;
7531;SDS011;3807;49.030;8.714;2023-08-17T12:34:43;6.85;;;5.20;;
7531;SDS011;3807;49.030;8.714;2023-08-17T12:37:09;7.40;;;5.50;;
7531;SDS011;3807;49.030;8.714;2023-08-17T12:39:35;7.70;;;5.62;;
7531;SDS011;3807;49.030;8.714;2023-08-17T12:42:01;7.20;;;5.20;;
7531;SDS011;3807;49.030;8.714;2023-08-17T12:44:26;6.97;;;5.80;;
7531;SDS011;3807;49.030;8.714;2023-08-17T12:46:52;10.43;;;5.68;;
7531;SDS011;3807;49.030;8.714;2023-08-17T12:49:17;6.87;;;5.80;;
7531;SDS011;3807;49.030;8.714;2023-08-17T12:51:42;7.18;;;6.28;;
7531;SDS011;3807;49.030;8.714;2023-08-17T12:54:08;7.75;;;5.40;;
7531;SDS011;3807;49.030;8.714;2023-08-17T12:56:33;7.10;;;6.03;;
7531;SDS011;3807;49.030;8.714;2023-08-17T12:58:58;8.35;;;6.10;;
7531;SDS011;3807;49.030;8.714;2023-08-17T13:01:24;8.13;;;5.65;;
7531;SDS011;3807;49.030;8.714;2023-08-17T13:03:49;7.03;;;6.10;;
7531;SDS011;3807;49.030;8.714;2023-08-17T13:06:14;7.00;;;6.05;;
7531;SDS011;3807;49.030;8.714;2023-08-17T13:08:40;8.27;;;6.62;;
7531;SDS011;3807;49.030;8.714;2023-08-17T13:11:05;10.15;;;6.93;;
7531;SDS011;3807;49.030;8.714;2023-08-17T13:13:30;7.32;;;5.87;;
7531;SDS011;3807;49.030;8.714;2023-08-17T13:15:56;10.18;;;6.57;;
7531;SDS011;3807;49.030;8.714;2023-08-17T13:18:21;7.75;;;6.95;;
7531;SDS011;3807;49.030;8.714;2023-08-17T13:20:47;7.85;;;6.43;;
7531;SDS011;3807;49.030;8.714;2023-08-17T13:23:12;9.43;;;6.90;;
7531;SDS011;3807;49.030;8.714;2023-08-17T13:25:38;9.50;;;7.18;;
7531;SDS011;3807;49.030;8.714;2023-08-17T13:28:03;8.38;;;7.50;;
7531;SDS011;3807;49.030;8.714;2023-08-17T13:30:29;7.30;;;6.25;;
7531;SDS011;3807;49.030;8.714;2023-08-17T13:32:55;9.27;;;6.53;;
7531;SDS011;3807;49.030;8.714;2023-08-17T13:35:20;9.07;;;7.07;;
7531;SDS011;3807;49.030;8.714;2023-08-17T13:37:50;11.20;;;6.87;;
7531;SDS011;3807;49.030;8.714;2023-08-17T13:40:16;12.90;;;7.37;;
7531;SDS011;3807;49.030;8.714;2023-08-17T13:42:41;8.35;;;7.15;;
7531;SDS011;3807;49.030;8.714;2023-08-17T13:45:07;8.82;;;7.15;;
7531;SDS011;3807;49.030;8.714;2023-08-17T13:47:32;13.95;;;6.80;;
7531;SDS011;3807;49.030;8.714;2023-08-17T13:49:58;7.35;;;6.65;;
7531;SDS011;3807;49.030;8.714;2023-08-17T13:52:23;8.48;;;7.53;;
7531;SDS011;3807;49.030;8.714;2023-08-17T13:54:48;13.57;;;6.72;;
7531;SDS011;3807;49.030;8.714;2023-08-17T13:57:14;8.80;;;6.82;;
7531;SDS011;3807;49.030;8.714;2023-08-17T13:59:39;10.73;;;7.12;;
7531;SDS011;3807;49.030;8.714;2023-08-17T14:02:05;7.75;;;6.87;;
7531;SDS011;3807;49.030;8.714;2023-08-17T14:04:31;12.27;;;7.35;;
7531;SDS011;3807;49.030;8.714;2023-08-17T14:06:56;8.10;;;7.30;;
7531;SDS011;3807;49.030;8.714;2023-08-17T14:09:21;12.52;;;7.47;;
7531;SDS011;3807;49.030;8.714;2023-08-17T14:11:47;12.32;;;7.18;;
7531;SDS011;3807;49.030;8.714;2023-08-17T14:14:12;8.32;;;6.87;;
7531;SDS011;3807;49.030;8.714;2023-08-17T14:16:37;11.70;;;6.85;;
7531;SDS011;3807;49.030;8.714;2023-08-17T14:19:03;7.18;;;6.28;;
7531;SDS011;3807;49.030;8.714;2023-08-17T14:21:28;10.10;;;6.60;;
7531;SDS011;3807;49.030;8.714;2023-08-17T14:23:53;9.98;;;6.35;;
7531;SDS011;3807;49.030;8.714;2023-08-17T14:26:19;12.50;;;6.30;;
7531;SDS011;3807;49.030;8.714;2023-08-17T14:28:44;11.23;;;6.18;;
7531;SDS011;3807;49.030;8.714;2023-08-17T14:31:09;6.82;;;6.12;;
7531;SDS011;3807;49.030;8.714;2023-08-17T14:33:40;6.97;;;6.28;;
7531;SDS011;3807;49.030;8.714;2023-08-17T14:36:05;7.32;;;6.62;;
7531;SDS011;3807;49.030;8.714;2023-08-17T14:38:31;8.20;;;6.22;;
7531;SDS011;3807;49.030;8.714;2023-08-17T14:40:56;8.43;;;7.07;;
7531;SDS011;3807;49.030;8.714;2023-08-17T14:43:22;9.27;;;6.68;;
7531;SDS011;3807;49.030;8.714;2023-08-17T14:45:47;6.82;;;6.12;;
7531;SDS011;3807;49.030;8.714;2023-08-17T14:48:12;8.40;;;6.68;;
7531;SDS011;3807;49.030;8.714;2023-08-17T14:50:38;9.18;;;6.95;;
7531;SDS011;3807;49.030;8.714;2023-08-17T14:53:04;10.45;;;5.68;;
7531;SDS011;3807;49.030;8.714;2023-08-17T14:55:32;7.75;;;5.85;;
7531;SDS011;3807;49.030;8.714;2023-08-17T14:57:58;7.28;;;5.30;;
7531;SDS011;3807;49.030;8.714;2023-08-17T15:00:24;6.80;;;6.10;;
7531;SDS011;3807;49.030;8.714;2023-08-17T15:02:50;6.75;;;6.05;;
7531;SDS011;3807;49.030;8.714;2023-08-17T15:05:17;10.30;;;5.80;;
7531;SDS011;3807;49.030;8.714;2023-08-17T15:07:44;8.18;;;4.97;;
7531;SDS011;3807;49.030;8.714;2023-08-17T15:10:10;6.15;;;5.55;;
7531;SDS011;3807;49.030;8.714;2023-08-17T15:12:35;5.45;;;4.95;;
7531;SDS011;3807;49.030;8.714;2023-08-17T15:15:01;7.43;;;5.35;;
7531;SDS011;3807;49.030;8.714;2023-08-17T15:17:27;8.27;;;5.72;;
7531;SDS011;3807;49.030;8.714;2023-08-17T15:19:55;5.60;;;5.10;;
7531;SDS011;3807;49.030;8.714;2023-08-17T15:22:20;5.65;;;5.12;;
7531;SDS011;3807;49.030;8.714;2023-08-17T15:24:46;7.15;;;5.95;;